Time;durP1;ratioP1;P1;durP2;ratioP2;P2;SDS_P1;SDS_P2;PMS_P1;PMS_P2;Temp;Humidity;BMP_temperature;BMP_pressure;BME280_temperature;BME280_humidity;BME280_pressure;Samples;Min_cycle;Max_cycle;Signal;HPM_P1;HPM_P2
2021/11/19 00:01:20;;;;;;;10.40;6.47;;;2.20;99.90;;;;;;4980743;28;20435;-73
2021/11/19 00:03:45;;;;;;;10.90;6.30;;;2.20;99.90;;;;;;4972654;28;20438;-73
2021/11/19 00:06:12;;;;;;;12.20;6.47;;;2.20;99.90;;;;;;4973392;28;20856;-72
2021/11/19 00:08:38;;;;;;;9.90;6.20;;;2.20;99.90;;;;;;4973843;28;20547;-73
2021/11/19 00:11:09;;;;;;;11.20;6.00;;;2.20;99.90;;;;;;4973592;28;20436;-73
2021/11/19 00:13:35;;;;;;;11.17;5.40;;;2.20;99.90;;;;;;4973494;28;20475;-73
2021/11/19 00:16:00;;;;;;;12.07;5.97;;;2.10;99.90;;;;;;4973522;28;20450;-73
2021/11/19 00:18:26;;;;;;;8.97;6.23;;;2.10;99.90;;;;;;4973386;28;20413;-73
2021/11/19 00:20:52;;;;;;;8.40;5.67;;;2.00;99.90;;;;;;4973441;28;20180;-72
2021/11/19 00:23:18;;;;;;;7.93;5.10;;;2.10;99.90;;;;;;4973221;28;20540;-73
2021/11/19 00:25:45;;;;;;;8.33;4.93;;;2.00;99.90;;;;;;4973527;28;20919;-73
2021/11/19 00:28:11;;;;;;;10.17;6.23;;;2.00;99.90;;;;;;4973118;28;20176;-74
2021/11/19 00:30:39;;;;;;;10.57;6.07;;;2.00;99.90;;;;;;4973194;28;20505;-70
2021/11/19 00:33:06;;;;;;;8.20;5.93;;;2.10;99.90;;;;;;4972665;28;20857;-73
2021/11/19 00:35:33;;;;;;;10.47;5.00;;;2.00;99.90;;;;;;4973007;28;20450;-73
2021/11/19 00:38:00;;;;;;;9.50;5.90;;;2.00;99.90;;;;;;4973015;28;20428;-72
2021/11/19 00:40:57;;;;;;;9.37;6.20;;;1.90;99.90;;;;;;4972933;28;20424;-72
2021/11/19 00:43:24;;;;;;;10.77;5.57;;;1.90;99.90;;;;;;4972301;28;20937;-73
2021/11/19 00:45:50;;;;;;;16.83;5.70;;;1.90;99.90;;;;;;4972882;28;20400;-73
2021/11/19 00:48:16;;;;;;;7.80;5.30;;;1.90;99.90;;;;;;4972922;28;20454;-74
2021/11/19 00:50:47;;;;;;;8.40;6.17;;;1.90;99.90;;;;;;4972789;28;20502;-72
2021/11/19 00:53:13;;;;;;;8.40;6.30;;;1.90;99.90;;;;;;4972798;28;20473;-73
2021/11/19 00:55:40;;;;;;;11.60;7.10;;;1.80;99.90;;;;;;4971540;28;20424;-73
2021/11/19 00:58:06;;;;;;;12.50;6.90;;;1.80;99.90;;;;;;4973008;28;20420;-73
2021/11/19 05:32:23;;;;;;;14.50;8.13;;;0.50;99.90;;;;;;5270963;23;20518;-69
2021/11/19 05:34:49;;;;;;;14.73;9.50;;;0.50;99.90;;;;;;4974832;28;20981;-69
2021/11/19 05:37:15;;;;;;;13.13;9.00;;;0.50;99.90;;;;;;4972010;28;20641;-72
2021/11/19 05:39:41;;;;;;;11.83;8.30;;;0.50;99.90;;;;;;4971394;28;20212;-70
2021/11/19 05:42:06;;;;;;;11.03;8.10;;;0.50;99.90;;;;;;4972750;28;20233;-72
2021/11/19 05:44:35;;;;;;;11.50;8.90;;;0.50;99.90;;;;;;4974987;28;20418;-72
2021/11/19 05:47:01;;;;;;;16.43;8.80;;;0.50;99.90;;;;;;4972555;28;20179;-71
2021/11/19 05:49:27;;;;;;;14.70;10.20;;;0.50;99.90;;;;;;4972559;28;20407;-72
2021/11/19 05:51:56;;;;;;;12.40;9.07;;;0.60;99.90;;;;;;4976449;28;20787;-72
2021/11/19 05:54:25;;;;;;;11.90;7.67;;;0.50;99.90;;;;;;4975925;28;20483;-73
2021/11/19 05:56:51;;;;;;;15.67;8.27;;;0.60;99.90;;;;;;4976262;28;20455;-70
2021/11/19 05:59:17;;;;;;;10.37;8.07;;;0.50;99.90;;;;;;4976013;28;20423;-72
2021/11/19 06:01:43;;;;;;;12.17;8.90;;;0.50;99.90;;;;;;4975930;28;20435;-72
2021/11/19 06:04:08;;;;;;;15.47;9.13;;;0.60;99.90;;;;;;4975258;28;20431;-72
2021/11/19 06:06:35;;;;;;;17.40;8.83;;;0.60;99.90;;;;;;4976222;28;20186;-73
2021/11/19 06:09:00;;;;;;;15.20;8.80;;;0.70;99.90;;;;;;4976073;28;20639;-72
2021/11/19 06:11:31;;;;;;;13.53;7.87;;;0.70;99.90;;;;;;4975935;28;20474;-72
2021/11/19 06:14:15;;;;;;;11.60;8.60;;;0.80;99.90;;;;;;4975765;28;20209;-72
2021/11/19 06:16:47;;;;;;;18.70;9.00;;;0.80;99.90;;;;;;4975861;28;20390;-72
2021/11/19 06:19:18;;;;;;;15.80;10.10;;;0.90;99.90;;;;;;4975842;28;20420;-72
2021/11/19 06:21:49;;;;;;;20.70;9.13;;;0.90;99.90;;;;;;4975678;28;20438;-72
2021/11/19 06:24:21;;;;;;;13.00;8.57;;;1.00;99.90;;;;;;4975590;28;20400;-72
2021/11/19 06:26:47;;;;;;;14.80;9.53;;;1.10;99.90;;;;;;4974391;28;20437;-73
2021/11/19 06:29:13;;;;;;;17.23;9.30;;;1.20;99.90;;;;;;4974631;28;20413;-72
2021/11/19 06:31:42;;;;;;;13.70;10.20;;;1.30;99.90;;;;;;4974936;28;20454;-72
2021/11/19 06:34:08;;;;;;;20.63;9.90;;;1.30;99.90;;;;;;4975307;28;20510;-73
2021/11/19 06:36:34;;;;;;;15.60;9.40;;;1.40;99.90;;;;;;4975558;28;20483;-73
2021/11/19 06:39:01;;;;;;;12.77;9.10;;;1.50;99.90;;;;;;4974403;28;20492;-74
2021/11/19 06:41:27;;;;;;;16.60;10.20;;;1.50;99.90;;;;;;4976094;28;21015;-71
2021/11/19 06:43:54;;;;;;;13.83;9.90;;;1.60;99.90;;;;;;4975136;28;20501;-72
2021/11/19 06:46:21;;;;;;;16.60;9.73;;;1.70;99.90;;;;;;4976316;28;20419;-72
2021/11/19 06:48:47;;;;;;;14.37;9.90;;;1.80;99.90;;;;;;4975392;28;20456;-71
2021/11/19 06:51:14;;;;;;;14.00;10.00;;;1.80;99.90;;;;;;4975431;28;20467;-71
2021/11/19 06:53:40;;;;;;;14.53;9.37;;;2.00;99.90;;;;;;4975444;28;20447;-71
2021/11/19 06:56:06;;;;;;;22.33;10.50;;;2.10;99.90;;;;;;4975872;28;20493;-71
2021/11/19 06:58:33;;;;;;;18.17;10.50;;;2.20;99.90;;;;;;4975517;28;20435;-72
2021/11/19 07:01:01;;;;;;;20.47;11.57;;;2.20;99.90;;;;;;4975094;28;20418;-72
2021/11/19 07:03:27;;;;;;;16.83;11.07;;;2.30;99.90;;;;;;4975020;28;20933;-72
2021/11/19 07:05:53;;;;;;;15.60;11.37;;;2.30;99.90;;;;;;4975449;28;20482;-71
2021/11/19 07:08:19;;;;;;;18.17;10.87;;;2.30;99.90;;;;;;4975253;28;20425;-71
2021/11/19 07:10:48;;;;;;;17.10;10.73;;;2.30;99.90;;;;;;4973413;28;20433;-71
2021/11/19 07:13:14;;;;;;;25.57;11.47;;;2.40;99.90;;;;;;4974841;28;20290;-71
2021/11/19 07:15:40;;;;;;;20.50;10.33;;;2.50;99.90;;;;;;4975062;28;20474;-71
2021/11/19 07:18:06;;;;;;;16.33;11.37;;;2.50;99.90;;;;;;4975042;28;20668;-71
2021/11/19 07:20:33;;;;;;;14.77;10.13;;;2.60;99.90;;;;;;4974951;28;20386;-71
2021/11/19 07:22:59;;;;;;;17.70;10.60;;;2.60;99.90;;;;;;4973377;28;21054;-72
2021/11/19 07:25:27;;;;;;;15.03;10.60;;;2.70;99.90;;;;;;4975066;28;20394;-72
2021/11/19 07:27:56;;;;;;;18.20;11.97;;;2.70;99.90;;;;;;4975442;28;20477;-70
2021/11/19 07:30:26;;;;;;;19.40;13.30;;;2.80;99.90;;;;;;4975368;28;20428;-70
2021/11/19 07:32:52;;;;;;;26.37;13.50;;;2.90;99.90;;;;;;4974416;28;20542;-72
2021/11/19 07:35:18;;;;;;;18.10;13.00;;;2.90;99.90;;;;;;4974705;28;20406;-71
2021/11/19 07:37:44;;;;;;;14.33;10.40;;;3.00;99.90;;;;;;4975320;28;20183;-74
2021/11/19 07:40:12;;;;;;;13.57;9.60;;;3.10;99.90;;;;;;4976475;28;20431;-71
2021/11/19 07:42:39;;;;;;;21.13;11.00;;;3.20;99.90;;;;;;4974694;28;20209;-71
2021/11/19 07:45:07;;;;;;;17.50;9.87;;;3.30;99.90;;;;;;4973195;28;20821;-71
2021/11/19 07:47:33;;;;;;;20.20;11.20;;;3.30;99.90;;;;;;4974426;28;20474;-71
2021/11/19 07:49:58;;;;;;;15.83;10.77;;;3.40;99.90;;;;;;4974367;28;20421;-71
2021/11/19 07:52:24;;;;;;;17.27;10.77;;;3.40;99.90;;;;;;4974297;28;20632;-71
2021/11/19 07:54:50;;;;;;;20.40;11.37;;;3.50;99.90;;;;;;4974561;28;20177;-71
2021/11/19 07:57:15;;;;;;;17.87;9.50;;;3.60;99.90;;;;;;4972506;28;20177;-71
2021/11/19 07:59:41;;;;;;;12.27;9.23;;;3.60;99.90;;;;;;4972655;28;20386;-70
2021/11/19 08:02:07;;;;;;;13.47;10.03;;;3.70;99.90;;;;;;4973876;28;20581;-69
2021/11/19 08:04:35;;;;;;;22.40;10.67;;;3.70;99.90;;;;;;4973565;28;20244;-72
2021/11/19 08:07:01;;;;;;;17.33;11.50;;;3.90;99.90;;;;;;4974063;28;20797;-70
2021/11/19 08:09:27;;;;;;;14.63;11.00;;;3.90;99.90;;;;;;4972415;28;20429;-70
2021/11/19 08:11:54;;;;;;;12.60;9.40;;;4.00;99.90;;;;;;4973841;28;20436;-70
2021/11/19 08:14:20;;;;;;;16.43;10.47;;;4.10;99.90;;;;;;4973125;28;20442;-70
2021/11/19 08:16:52;;;;;;;14.73;9.87;;;4.20;99.90;;;;;;4973640;28;20416;-70
2021/11/19 08:19:32;;;;;;;14.53;11.37;;;4.20;99.90;;;;;;4973675;28;20668;-70
2021/11/19 08:22:00;;;;;;;17.43;9.80;;;4.30;99.90;;;;;;4973598;28;20811;-70
2021/11/19 08:24:27;;;;;;;13.93;10.27;;;4.40;99.90;;;;;;4973214;28;20450;-70
2021/11/19 08:26:57;;;;;;;21.50;10.77;;;4.50;99.90;;;;;;4971983;28;20402;-70
2021/11/19 08:29:26;;;;;;;17.40;10.53;;;4.60;99.90;;;;;;4988166;28;20829;-70
2021/11/19 08:31:53;;;;;;;14.10;10.43;;;4.60;99.90;;;;;;4972992;28;20573;-70
2021/11/19 08:34:20;;;;;;;15.03;10.93;;;4.70;99.90;;;;;;4972933;28;20519;-70
2021/11/19 08:36:46;;;;;;;15.80;11.13;;;4.80;99.90;;;;;;4973344;28;20414;-70
2021/11/19 08:39:15;;;;;;;15.60;11.10;;;5.00;99.90;;;;;;4973154;28;20429;-70
2021/11/19 08:41:41;;;;;;;18.77;10.67;;;5.10;99.90;;;;;;4973367;28;20185;-70
2021/11/19 08:44:07;;;;;;;15.53;10.03;;;5.20;99.90;;;;;;4972808;28;20482;-69
2021/11/19 08:46:37;;;;;;;19.30;10.87;;;5.30;99.90;;;;;;4973236;28;20421;-70
2021/11/19 08:49:05;;;;;;;16.13;10.23;;;5.40;99.90;;;;;;4973123;28;20807;-70
2021/11/19 08:51:31;;;;;;;18.30;10.50;;;5.40;99.90;;;;;;4973097;28;20503;-70
2021/11/19 08:54:01;;;;;;;18.43;10.97;;;5.50;99.90;;;;;;4972618;28;20887;-70
2021/11/19 08:56:29;;;;;;;17.23;11.67;;;5.50;99.90;;;;;;4973009;28;20457;-70
2021/11/19 08:58:55;;;;;;;15.97;10.13;;;5.60;99.90;;;;;;4973097;28;20553;-71
2021/11/19 09:01:22;;;;;;;15.50;10.93;;;5.60;99.90;;;;;;4971387;28;20557;-71
2021/11/19 09:03:49;;;;;;;18.93;10.47;;;5.70;99.90;;;;;;4972641;28;20626;-71
2021/11/19 09:06:16;;;;;;;20.87;14.20;;;5.70;99.90;;;;;;4972899;28;20390;-72
2021/11/19 09:08:43;;;;;;;20.43;10.87;;;5.80;99.90;;;;;;4972878;28;20421;-71
2021/11/19 09:11:12;;;;;;;16.57;10.47;;;6.00;99.90;;;;;;4972560;28;20435;-71
2021/11/19 09:13:40;;;;;;;20.37;10.57;;;6.10;99.90;;;;;;4972472;28;20586;-71
2021/11/19 09:16:08;;;;;;;21.37;11.00;;;6.20;99.90;;;;;;4971363;28;20436;-71
2021/11/19 09:18:42;;;;;;;17.37;8.70;;;6.30;99.90;;;;;;4972824;28;20427;-71
2021/11/19 09:21:26;;;;;;;22.53;9.63;;;6.30;99.90;;;;;;4972750;28;20435;-71
2021/11/19 09:24:07;;;;;;;22.70;9.97;;;6.30;99.90;;;;;;4972344;28;20428;-71
2021/11/19 09:26:39;;;;;;;16.60;9.80;;;6.20;99.90;;;;;;4972787;28;20425;-71
2021/11/19 09:29:09;;;;;;;20.87;11.40;;;6.20;99.90;;;;;;4972727;28;20429;-71
2021/11/19 09:31:36;;;;;;;23.40;12.10;;;6.30;99.90;;;;;;4972582;28;20526;-71
2021/11/19 09:34:04;;;;;;;27.33;11.10;;;6.30;99.90;;;;;;4972043;28;21007;-71
2021/11/19 09:36:29;;;;;;;21.37;10.87;;;6.30;99.90;;;;;;4972675;28;20420;-72
2021/11/19 09:38:55;;;;;;;21.27;11.70;;;6.30;99.90;;;;;;4972560;28;20415;-70
2021/11/19 09:41:20;;;;;;;22.73;12.00;;;6.30;99.90;;;;;;4971143;28;20207;-69
2021/11/19 09:44:04;;;;;;;18.67;10.77;;;6.30;99.90;;;;;;4972329;28;20215;-70
2021/11/19 09:47:00;;;;;;;21.80;12.17;;;6.20;99.90;;;;;;4972528;28;20194;-69
2021/11/19 09:50:07;;;;;;;25.67;11.00;;;6.20;99.90;;;;;;4971712;28;20489;-69
2021/11/19 09:53:10;;;;;;;15.10;8.67;;;6.30;99.90;;;;;;4972957;28;20498;-68
2021/11/19 09:56:17;;;;;;;16.93;8.87;;;6.40;99.90;;;;;;4971044;28;20785;-69
2021/11/19 09:59:20;;;;;;;21.03;9.73;;;6.30;99.90;;;;;;4972575;28;20403;-70
2021/11/19 10:01:58;;;;;;;15.27;9.83;;;6.30;99.90;;;;;;4972415;28;20424;-69
2021/11/19 10:05:01;;;;;;;17.90;10.37;;;6.40;99.90;;;;;;4972258;28;20420;-71
2021/11/19 10:07:52;;;;;;;17.03;10.47;;;6.40;99.90;;;;;;4972227;28;20429;-71
2021/11/19 10:10:56;;;;;;;19.00;11.50;;;6.50;99.90;;;;;;4972338;28;20777;-72
2021/11/19 10:13:22;;;;;;;19.30;10.83;;;6.50;99.90;;;;;;4971919;28;20631;-72
2021/11/19 10:16:02;;;;;;;22.33;12.10;;;6.40;99.90;;;;;;4972232;28;20506;-71
2021/11/19 10:18:55;;;;;;;21.50;10.70;;;6.50;99.90;;;;;;4972187;28;20243;-71
2021/11/19 10:21:28;;;;;;;22.67;10.87;;;6.50;99.90;;;;;;4972029;28;20457;-72
2021/11/19 10:23:59;;;;;;;22.80;10.17;;;6.60;99.90;;;;;;4971947;28;20436;-71
2021/11/19 10:26:34;;;;;;;18.43;10.97;;;6.70;99.90;;;;;;4971771;28;20505;-71
2021/11/19 10:29:02;;;;;;;17.43;9.60;;;6.70;99.90;;;;;;4972092;28;20410;-72
2021/11/19 10:31:28;;;;;;;16.20;10.20;;;6.60;99.90;;;;;;4971882;28;20834;-71
2021/11/19 10:34:31;;;;;;;20.80;11.47;;;6.60;99.90;;;;;;4971932;28;20500;-71
2021/11/19 10:37:11;;;;;;;14.07;9.90;;;6.70;99.90;;;;;;4973603;28;20799;-69
2021/11/19 10:40:09;;;;;;;23.37;10.13;;;6.70;99.90;;;;;;4975576;28;20419;-69
2021/11/19 10:42:42;;;;;;;17.73;9.67;;;6.60;99.90;;;;;;4975514;28;20487;-70
2021/11/19 10:45:20;;;;;;;20.70;10.97;;;6.60;99.90;;;;;;4975228;28;21029;-70
2021/11/19 10:48:03;;;;;;;13.83;8.93;;;6.60;99.90;;;;;;4975943;28;20403;-70
2021/11/19 10:50:53;;;;;;;16.90;10.60;;;6.70;99.90;;;;;;4975342;28;20407;-69
2021/11/19 10:53:57;;;;;;;15.93;10.10;;;6.70;99.90;;;;;;4975055;28;20502;-69
2021/11/19 10:56:50;;;;;;;24.33;11.13;;;6.80;99.90;;;;;;4975080;28;20411;-70
2021/11/19 10:59:28;;;;;;;21.07;10.37;;;6.80;99.90;;;;;;4974203;28;20454;-69
2021/11/19 11:02:09;;;;;;;17.20;10.17;;;6.90;99.90;;;;;;4975368;28;20437;-70
2021/11/19 11:07:22;;;;;;;21.73;12.90;;;7.00;99.90;;;;;;4974815;28;20411;-69
2021/11/19 11:10:08;;;;;;;24.53;11.77;;;7.00;99.90;;;;;;4975151;28;20399;-70
2021/11/19 11:12:45;;;;;;;27.70;19.07;;;7.10;99.90;;;;;;4974681;28;20527;-70
2021/11/19 11:15:19;;;;;;;23.73;14.37;;;7.10;99.90;;;;;;4974951;28;20414;-69
2021/11/19 11:18:01;;;;;;;17.63;11.30;;;7.10;99.90;;;;;;4975070;28;20417;-69
2021/11/19 11:20:35;;;;;;;23.53;12.63;;;7.10;99.90;;;;;;4974754;28;20412;-70
2021/11/19 11:23:34;;;;;;;24.33;12.57;;;7.10;99.90;;;;;;4974646;28;20454;-69
2021/11/19 11:26:13;;;;;;;21.23;13.10;;;7.10;99.90;;;;;;4974617;28;20412;-70
2021/11/19 11:28:44;;;;;;;24.90;13.27;;;7.20;99.90;;;;;;4974783;28;20424;-70
2021/11/19 11:31:34;;;;;;;22.50;11.90;;;7.20;99.90;;;;;;4974248;28;20466;-70
2021/11/19 11:34:14;;;;;;;17.77;11.73;;;7.20;99.90;;;;;;4974417;28;20838;-70
2021/11/19 11:37:06;;;;;;;21.10;12.63;;;7.30;99.90;;;;;;4974424;28;20412;-70
2021/11/19 11:39:59;;;;;;;18.83;12.30;;;7.30;99.90;;;;;;4958760;28;20491;-70
2021/11/19 11:42:28;;;;;;;20.60;12.93;;;7.40;99.90;;;;;;4974020;28;20979;-70
2021/11/19 11:44:57;;;;;;;21.50;12.33;;;7.30;99.90;;;;;;4974889;28;20789;-70
2021/11/19 11:48:02;;;;;;;23.97;13.07;;;7.40;99.90;;;;;;4974001;28;20474;-70
2021/11/19 11:50:54;;;;;;;17.27;11.17;;;7.40;99.90;;;;;;4968706;28;20430;-69
2021/11/19 11:53:42;;;;;;;22.10;13.70;;;7.40;99.90;;;;;;4973809;28;20456;-70
2021/11/19 11:56:19;;;;;;;23.93;12.50;;;7.30;99.90;;;;;;4972743;28;20475;-70
2021/11/19 11:59:17;;;;;;;23.03;13.30;;;7.30;99.90;;;;;;4974111;28;20415;-70
2021/11/19 12:01:55;;;;;;;20.50;12.43;;;7.30;99.90;;;;;;4974185;28;20495;-70
2021/11/19 12:04:58;;;;;;;22.87;12.97;;;7.40;99.90;;;;;;4973619;28;20799;-70
2021/11/19 12:07:52;;;;;;;25.97;13.73;;;7.40;99.90;;;;;;4973743;28;20467;-70
2021/11/19 12:10:24;;;;;;;18.70;11.00;;;7.50;99.90;;;;;;4973642;28;20464;-71
2021/11/19 12:13:01;;;;;;;18.90;11.13;;;7.50;99.90;;;;;;4973579;28;20474;-71
2021/11/19 12:15:51;;;;;;;21.43;11.30;;;7.40;99.90;;;;;;4973448;28;20419;-70
2021/11/19 12:18:51;;;;;;;21.00;11.70;;;7.30;99.90;;;;;;4972362;28;20428;-70
2021/11/19 12:21:31;;;;;;;21.40;11.43;;;7.30;99.90;;;;;;4973416;28;20522;-70
2021/11/19 12:24:15;;;;;;;19.50;11.10;;;7.40;99.90;;;;;;4973415;28;20427;-70
2021/11/19 12:27:09;;;;;;;22.67;12.60;;;7.40;99.90;;;;;;4973350;28;20409;-71
2021/11/19 12:29:50;;;;;;;23.37;13.37;;;7.40;99.90;;;;;;4974477;28;20463;-71
2021/11/19 12:32:35;;;;;;;22.67;11.40;;;7.40;99.90;;;;;;4973932;28;20475;-71
2021/11/19 12:35:36;;;;;;;24.17;12.30;;;7.20;99.90;;;;;;4974186;28;20424;-71
2021/11/19 12:38:19;;;;;;;20.50;12.57;;;7.30;99.90;;;;;;4974237;28;20392;-71
2021/11/19 12:40:50;;;;;;;19.20;11.93;;;7.30;99.90;;;;;;4973622;28;20417;-71
2021/11/19 12:43:35;;;;;;;21.80;13.37;;;7.50;99.90;;;;;;4973921;28;20887;-72
2021/11/19 12:46:27;;;;;;;23.13;12.90;;;7.60;99.90;;;;;;4974068;28;20902;-71
2021/11/19 12:48:53;;;;;;;22.00;10.70;;;7.60;99.90;;;;;;4974126;28;20410;-71
2021/11/19 12:51:36;;;;;;;22.37;12.30;;;7.60;99.90;;;;;;4973832;28;20487;-72
2021/11/19 12:54:22;;;;;;;25.40;12.40;;;7.70;99.90;;;;;;4973614;28;20212;-73
2021/11/19 12:57:25;;;;;;;18.20;11.30;;;7.60;99.90;;;;;;4973666;28;20443;-71
2021/11/19 13:00:10;;;;;;;15.60;9.83;;;7.70;99.90;;;;;;4973423;28;20920;-71
2021/11/19 13:02:48;;;;;;;22.47;11.37;;;7.60;99.90;;;;;;4973929;28;21065;-72
2021/11/19 13:05:24;;;;;;;18.77;10.50;;;7.60;99.90;;;;;;4974224;28;20434;-71
2021/11/19 13:08:00;;;;;;;21.40;11.43;;;7.60;99.90;;;;;;4974065;28;20825;-71
2021/11/19 13:10:26;;;;;;;19.23;10.43;;;7.60;99.90;;;;;;4973748;28;20407;-71
2021/11/19 13:13:21;;;;;;;19.20;10.47;;;7.70;99.90;;;;;;4973349;28;20452;-72
2021/11/19 13:15:51;;;;;;;20.27;11.00;;;7.70;99.90;;;;;;4973895;28;20550;-71
2021/11/19 13:18:17;;;;;;;33.83;13.40;;;7.70;99.90;;;;;;4973717;28;20421;-71
2021/11/19 13:20:46;;;;;;;21.43;11.87;;;7.70;99.90;;;;;;4973490;28;20599;-72
2021/11/19 13:23:35;;;;;;;20.40;11.57;;;7.70;99.90;;;;;;4973224;28;20177;-71
2021/11/19 13:26:13;;;;;;;26.03;11.97;;;7.70;99.90;;;;;;4974273;28;20851;-71
2021/11/19 13:28:48;;;;;;;25.43;13.57;;;7.60;99.90;;;;;;4973577;28;21024;-71
2021/11/19 13:31:24;;;;;;;23.93;11.90;;;7.60;99.90;;;;;;4973218;28;20504;-71
2021/11/19 13:34:05;;;;;;;26.33;12.80;;;7.60;99.90;;;;;;4973282;28;20531;-71
2021/11/19 13:37:09;;;;;;;18.23;11.80;;;7.50;99.90;;;;;;4973533;28;20782;-72
2021/11/19 13:39:36;;;;;;;22.17;11.50;;;7.50;99.90;;;;;;4973187;28;20520;-71
2021/11/19 13:42:11;;;;;;;23.83;11.80;;;7.50;99.90;;;;;;4973404;28;20484;-71
2021/11/19 13:44:58;;;;;;;22.27;10.90;;;7.50;99.90;;;;;;4973206;28;20425;-71
2021/11/19 13:47:47;;;;;;;25.93;11.50;;;7.60;99.90;;;;;;4973478;28;20461;-72
2021/11/19 13:50:25;;;;;;;20.20;10.77;;;7.60;99.90;;;;;;4973030;28;20466;-72
2021/11/19 13:53:00;;;;;;;26.80;12.40;;;7.60;99.90;;;;;;4973109;28;20547;-71
2021/11/19 13:55:31;;;;;;;24.27;11.50;;;7.70;99.90;;;;;;4973056;28;20413;-72
2021/11/19 13:58:18;;;;;;;27.10;11.30;;;7.70;99.90;;;;;;4973170;28;20424;-72
2021/11/19 14:01:08;;;;;;;20.50;11.33;;;7.80;99.90;;;;;;4972994;28;20424;-72
2021/11/19 14:03:36;;;;;;;22.07;12.43;;;7.70;99.90;;;;;;4973168;28;20436;-73
2021/11/19 14:06:19;;;;;;;21.57;9.97;;;7.70;99.90;;;;;;4973155;28;21106;-71
2021/11/19 14:09:00;;;;;;;24.07;11.50;;;7.70;99.90;;;;;;4973238;28;20421;-71
2021/11/19 14:11:29;;;;;;;27.53;12.47;;;7.70;99.90;;;;;;4975039;28;20440;-71
2021/11/19 14:13:55;;;;;;;17.60;10.80;;;7.80;99.90;;;;;;4976587;28;20464;-71
2021/11/19 14:16:33;;;;;;;25.73;11.00;;;7.80;99.90;;;;;;4976888;28;20754;-71
2021/11/19 14:19:08;;;;;;;38.10;13.17;;;7.80;99.90;;;;;;4976727;28;20508;-71
2021/11/19 14:22:00;;;;;;;22.30;11.43;;;7.80;99.90;;;;;;4976689;28;20470;-71
2021/11/19 14:24:39;;;;;;;23.83;11.70;;;7.80;99.90;;;;;;4976249;28;20402;-71
2021/11/19 14:27:31;;;;;;;19.90;10.93;;;7.70;99.90;;;;;;4976791;28;20924;-71
2021/11/19 14:30:02;;;;;;;17.70;9.90;;;7.70;99.90;;;;;;4976450;28;21009;-71
2021/11/19 14:32:30;;;;;;;30.93;9.93;;;7.70;99.90;;;;;;4975958;28;21174;-72
2021/11/19 14:35:17;;;;;;;19.17;10.27;;;7.70;99.90;;;;;;4976172;28;21056;-71
2021/11/19 14:37:43;;;;;;;21.60;10.20;;;7.70;99.90;;;;;;4976136;28;20418;-71
2021/11/19 14:40:16;;;;;;;20.53;10.97;;;7.70;99.90;;;;;;4976040;28;20848;-71
2021/11/19 14:42:44;;;;;;;15.63;10.43;;;7.70;99.90;;;;;;4979730;28;20475;-71
2021/11/19 14:45:12;;;;;;;18.93;9.93;;;7.70;99.90;;;;;;4975932;28;20504;-71
2021/11/19 14:47:43;;;;;;;14.50;9.23;;;7.70;99.90;;;;;;4974800;28;20916;-71
2021/11/19 14:51:01;;;;;;;19.13;9.80;;;7.80;99.90;;;;;;4975959;28;20427;-71
2021/11/19 14:53:00;;;;;;;18.73;9.10;;;7.80;99.90;;;;;;4975734;28;20850;-71
2021/11/19 14:55:37;;;;;;;23.20;10.83;;;7.70;99.90;;;;;;4975767;28;20499;-72
2021/11/19 14:58:29;;;;;;;21.20;10.03;;;7.80;99.90;;;;;;4976154;28;20499;-71
2021/11/19 15:01:04;;;;;;;19.63;9.60;;;7.80;99.90;;;;;;4975783;28;20453;-71
2021/11/19 15:03:45;;;;;;;13.73;9.90;;;7.80;99.90;;;;;;4975560;28;20453;-71
2021/11/19 15:06:19;;;;;;;20.13;10.20;;;7.70;99.90;;;;;;4975753;28;20416;-71
2021/11/19 15:09:04;;;;;;;15.10;8.87;;;7.70;99.90;;;;;;4975849;28;20440;-71
2021/11/19 15:11:54;;;;;;;15.07;8.00;;;7.70;99.90;;;;;;4975414;28;20444;-71
2021/11/19 15:14:35;;;;;;;17.73;9.30;;;7.60;99.90;;;;;;4973994;28;20475;-71
2021/11/19 15:17:52;;;;;;;14.10;9.40;;;7.60;99.90;;;;;;4974100;28;20398;-71
2021/11/19 15:20:30;;;;;;;19.20;8.27;;;7.50;99.90;;;;;;4952930;28;20519;-71
2021/11/19 15:23:02;;;;;;;15.60;9.20;;;7.50;99.90;;;;;;4974314;28;20423;-71
2021/11/19 15:25:28;;;;;;;18.53;9.77;;;7.50;99.90;;;;;;4975304;28;20417;-71
2021/11/19 15:28:09;;;;;;;12.23;8.57;;;7.50;99.90;;;;;;4975189;28;20411;-71
2021/11/19 15:31:06;;;;;;;14.40;9.00;;;7.50;99.90;;;;;;4975240;28;20170;-70
2021/11/19 15:33:32;;;;;;;11.87;8.90;;;7.50;99.90;;;;;;4974820;28;20627;-71
2021/11/19 15:36:20;;;;;;;14.93;9.20;;;7.40;99.90;;;;;;4975237;28;20499;-72
2021/11/19 15:38:49;;;;;;;14.70;8.77;;;7.40;99.90;;;;;;4974686;28;20186;-71
2021/11/19 15:41:38;;;;;;;13.00;9.00;;;7.40;99.90;;;;;;4974765;28;20925;-71
2021/11/19 15:44:11;;;;;;;19.00;10.60;;;7.50;99.90;;;;;;4974790;28;20420;-71
2021/11/19 15:46:38;;;;;;;17.63;9.13;;;7.40;99.90;;;;;;4974872;28;20420;-71
2021/11/19 15:49:13;;;;;;;17.50;9.03;;;7.40;99.90;;;;;;4974733;28;20465;-70
2021/11/19 15:51:51;;;;;;;14.40;7.80;;;7.40;99.90;;;;;;4974830;28;20443;-72
2021/11/19 15:54:27;;;;;;;12.53;7.10;;;7.40;99.90;;;;;;4974491;28;20887;-71
2021/11/19 15:56:56;;;;;;;9.87;7.17;;;7.30;99.90;;;;;;4974413;28;20409;-72
2021/11/19 15:59:41;;;;;;;10.83;6.67;;;7.30;99.90;;;;;;4974084;28;20510;-71
2021/11/19 16:02:12;;;;;;;10.97;6.70;;;7.30;99.90;;;;;;4973940;28;20459;-72
2021/11/19 16:05:08;;;;;;;14.03;8.53;;;7.30;99.90;;;;;;4974063;28;20431;-72
2021/11/19 16:08:06;;;;;;;22.80;8.43;;;7.20;99.90;;;;;;4973785;28;20435;-71
2021/11/19 16:11:13;;;;;;;17.13;6.70;;;7.20;99.90;;;;;;4973966;28;20514;-69
2021/11/19 16:13:42;;;;;;;10.33;6.80;;;7.20;99.90;;;;;;4962330;28;20818;-72
2021/11/19 16:16:12;;;;;;;14.87;6.67;;;7.20;99.90;;;;;;4973664;28;20922;-73
2021/11/19 16:18:41;;;;;;;8.90;6.50;;;7.20;99.90;;;;;;4972578;28;20478;-72
2021/11/19 16:21:09;;;;;;;26.07;9.93;;;7.20;99.90;;;;;;4973531;28;20443;-72
2021/11/19 16:23:36;;;;;;;12.80;7.20;;;7.20;99.90;;;;;;4973415;28;20420;-72
2021/11/19 16:26:05;;;;;;;14.30;6.73;;;7.10;99.90;;;;;;4973675;28;20454;-70
2021/11/19 16:28:34;;;;;;;8.87;7.63;;;7.20;99.90;;;;;;4972186;28;20435;-71
2021/11/19 16:31:00;;;;;;;9.30;6.40;;;7.10;99.90;;;;;;4973508;28;20452;-71
2021/11/19 16:33:27;;;;;;;12.33;6.93;;;7.10;99.90;;;;;;4973132;28;20430;-71
2021/11/19 16:35:52;;;;;;;9.50;6.70;;;7.10;99.90;;;;;;4976265;28;20406;-72
2021/11/19 16:38:19;;;;;;;14.10;7.80;;;7.10;99.90;;;;;;4975673;28;20905;-71
2021/11/19 16:40:49;;;;;;;12.53;7.97;;;7.10;99.90;;;;;;4973471;28;20179;-72
2021/11/19 16:43:16;;;;;;;11.97;8.57;;;7.00;99.90;;;;;;4973040;28;20418;-71
2021/11/19 16:45:45;;;;;;;13.00;8.93;;;7.00;99.90;;;;;;4973448;28;20417;-71
2021/11/19 16:48:22;;;;;;;12.77;8.10;;;7.00;99.90;;;;;;4973159;28;20495;-71
2021/11/19 16:50:58;;;;;;;15.30;8.67;;;6.90;99.90;;;;;;4973111;28;20545;-71
2021/11/19 16:53:25;;;;;;;11.87;8.23;;;7.00;99.90;;;;;;4972881;28;20563;-72
2021/11/19 16:55:52;;;;;;;13.23;8.10;;;6.90;99.90;;;;;;4973129;28;20398;-73
2021/11/19 16:58:20;;;;;;;19.13;8.30;;;6.90;99.90;;;;;;4972919;28;20422;-72
2021/11/19 17:00:51;;;;;;;12.87;7.93;;;7.00;99.90;;;;;;4973017;28;20405;-72
2021/11/19 17:03:18;;;;;;;13.40;9.80;;;7.00;99.90;;;;;;4972673;28;20863;-72
2021/11/19 17:05:45;;;;;;;15.40;10.00;;;7.00;99.90;;;;;;4972924;28;20398;-71
2021/11/19 17:08:12;;;;;;;13.60;9.50;;;6.90;99.90;;;;;;4972767;28;20478;-71
2021/11/19 17:10:40;;;;;;;15.73;9.33;;;6.90;99.90;;;;;;4971831;28;20790;-72
2021/11/19 17:13:07;;;;;;;19.50;10.17;;;6.90;99.90;;;;;;4972535;28;20451;-72
2021/11/19 17:15:33;;;;;;;11.83;9.40;;;6.80;99.90;;;;;;4961557;28;20511;-71
2021/11/19 17:17:58;;;;;;;13.27;9.57;;;6.80;99.90;;;;;;4969183;28;20448;-71
2021/11/19 17:20:26;;;;;;;16.77;11.33;;;6.90;99.90;;;;;;4984236;28;20513;-72
2021/11/19 17:22:53;;;;;;;16.57;11.47;;;6.90;99.90;;;;;;4989824;28;20234;-72
2021/11/19 17:25:21;;;;;;;15.07;10.70;;;6.80;99.90;;;;;;4989915;28;20460;-72
2021/11/19 17:27:48;;;;;;;16.50;10.93;;;6.80;99.90;;;;;;4981248;28;20502;-73
2021/11/19 17:30:16;;;;;;;15.07;11.37;;;6.80;99.90;;;;;;4978113;28;20453;-73
2021/11/19 17:32:42;;;;;;;14.03;11.10;;;6.90;99.90;;;;;;4990974;28;20531;-72
2021/11/19 17:35:09;;;;;;;16.50;11.47;;;6.90;99.90;;;;;;4991441;28;20447;-72
2021/11/19 17:37:37;;;;;;;27.00;15.53;;;6.80;99.90;;;;;;4967477;28;20329;-71
2021/11/19 17:40:11;;;;;;;29.60;16.57;;;6.90;99.90;;;;;;4991605;28;20945;-72
2021/11/19 17:42:42;;;;;;;15.23;12.17;;;6.90;99.90;;;;;;4991183;28;20472;-72
2021/11/19 17:45:11;;;;;;;16.33;11.70;;;6.80;99.90;;;;;;4979146;28;20451;-72
2021/11/19 17:47:37;;;;;;;21.13;13.60;;;6.90;99.90;;;;;;4979926;28;20465;-73
2021/11/19 17:50:06;;;;;;;22.43;13.87;;;6.90;99.90;;;;;;4984660;28;20537;-72
2021/11/19 17:52:32;;;;;;;22.93;14.63;;;6.90;99.90;;;;;;4995066;28;20211;-72